sensor_id;sensor_type;location;lat;lon;timestamp;temperature;humidity
63277;DHT22;49403;51.046;13.780;2024-03-06T00:00:26;7.40;81.00
63277;DHT22;49403;51.046;13.780;2024-03-06T00:00:57;6.40;80.20
63277;DHT22;49403;51.046;13.780;2024-03-06T00:01:27;7.20;80.80
63277;DHT22;49403;51.046;13.780;2024-03-06T00:01:58;7.50;81.10
63277;DHT22;49403;51.046;13.780;2024-03-06T00:02:29;7.50;81.10
63277;DHT22;49403;51.046;13.780;2024-03-06T00:03:00;7.40;80.80
63277;DHT22;49403;51.046;13.780;2024-03-06T00:03:31;7.50;81.20
63277;DHT22;49403;51.046;13.780;2024-03-06T00:04:03;7.50;81.30
63277;DHT22;49403;51.046;13.780;2024-03-06T00:04:34;7.40;81.00
63277;DHT22;49403;51.046;13.780;2024-03-06T00:05:06;7.50;81.80
63277;DHT22;49403;51.046;13.780;2024-03-06T00:05:38;7.50;81.00
63277;DHT22;49403;51.046;13.780;2024-03-06T00:06:09;7.50;81.30
63277;DHT22;49403;51.046;13.780;2024-03-06T00:06:40;7.50;81.30
63277;DHT22;49403;51.046;13.780;2024-03-06T00:07:11;6.20;80.10
63277;DHT22;49403;51.046;13.780;2024-03-06T00:07:41;7.00;81.00
63277;DHT22;49403;51.046;13.780;2024-03-06T00:08:12;6.90;80.90
63277;DHT22;49403;51.046;13.780;2024-03-06T00:08:43;7.50;81.50
63277;DHT22;49403;51.046;13.780;2024-03-06T00:09:14;7.50;81.50
63277;DHT22;49403;51.046;13.780;2024-03-06T00:09:45;8.00;81.80
63277;DHT22;49403;51.046;13.780;2024-03-06T00:10:16;7.50;81.30
63277;DHT22;49403;51.046;13.780;2024-03-06T00:10:46;7.20;81.00
63277;DHT22;49403;51.046;13.780;2024-03-06T00:11:17;7.50;81.10
63277;DHT22;49403;51.046;13.780;2024-03-06T00:11:48;7.50;81.10
63277;DHT22;49403;51.046;13.780;2024-03-06T00:12:21;7.50;81.20
63277;DHT22;49403;51.046;13.780;2024-03-06T00:12:52;7.50;81.20
63277;DHT22;49403;51.046;13.780;2024-03-06T00:13:23;7.50;81.20
63277;DHT22;49403;51.046;13.780;2024-03-06T00:13:53;7.60;81.30
63277;DHT22;49403;51.046;13.780;2024-03-06T00:14:24;8.00;81.70
63277;DHT22;49403;51.046;13.780;2024-03-06T00:14:55;7.50;81.20
63277;DHT22;49403;51.046;13.780;2024-03-06T00:15:26;7.50;81.20
63277;DHT22;49403;51.046;13.780;2024-03-06T00:15:58;7.50;81.30
63277;DHT22;49403;51.046;13.780;2024-03-06T00:16:29;7.50;81.20
63277;DHT22;49403;51.046;13.780;2024-03-06T00:17:00;7.50;81.20
63277;DHT22;49403;51.046;13.780;2024-03-06T00:17:30;7.50;81.30
63277;DHT22;49403;51.046;13.780;2024-03-06T00:18:01;7.20;81.00
63277;DHT22;49403;51.046;13.780;2024-03-06T00:18:34;7.50;81.30
63277;DHT22;49403;51.046;13.780;2024-03-06T00:19:05;6.20;80.10
63277;DHT22;49403;51.046;13.780;2024-03-06T00:19:36;7.50;81.40
63277;DHT22;49403;51.046;13.780;2024-03-06T00:20:07;7.50;81.40
63277;DHT22;49403;51.046;13.780;2024-03-06T00:20:41;7.50;81.30
63277;DHT22;49403;51.046;13.780;2024-03-06T00:21:13;7.50;81.30
63277;DHT22;49403;51.046;13.780;2024-03-06T00:21:44;7.50;81.30
63277;DHT22;49403;51.046;13.780;2024-03-06T00:22:14;7.50;81.30
63277;DHT22;49403;51.046;13.780;2024-03-06T00:22:45;7.50;81.30
63277;DHT22;49403;51.046;13.780;2024-03-06T00:23:16;6.10;80.00
63277;DHT22;49403;51.046;13.780;2024-03-06T00:23:47;7.90;81.80
63277;DHT22;49403;51.046;13.780;2024-03-06T00:24:18;7.60;81.40
63277;DHT22;49403;51.046;13.780;2024-03-06T00:24:49;8.40;82.20
63277;DHT22;49403;51.046;13.780;2024-03-06T00:25:20;7.60;81.30
63277;DHT22;49403;51.046;13.780;2024-03-06T00:25:51;7.60;81.30
63277;DHT22;49403;51.046;13.780;2024-03-06T00:26:21;7.60;81.20
63277;DHT22;49403;51.046;13.780;2024-03-06T00:26:52;7.90;81.40
63277;DHT22;49403;51.046;13.780;2024-03-06T00:27:24;7.60;81.10
63277;DHT22;49403;51.046;13.780;2024-03-06T00:27:55;7.60;81.10
63277;DHT22;49403;51.046;13.780;2024-03-06T00:28:25;7.60;81.00
63277;DHT22;49403;51.046;13.780;2024-03-06T00:28:56;7.60;81.00
63277;DHT22;49403;51.046;13.780;2024-03-06T00:29:27;7.60;81.00
63277;DHT22;49403;51.046;13.780;2024-03-06T00:29:58;7.60;80.80
63277;DHT22;49403;51.046;13.780;2024-03-06T00:30:29;7.70;81.10
63277;DHT22;49403;51.046;13.780;2024-03-06T00:31:00;7.60;81.00
63277;DHT22;49403;51.046;13.780;2024-03-06T00:31:31;7.70;81.00
63277;DHT22;49403;51.046;13.780;2024-03-06T00:32:02;7.70;81.00
63277;DHT22;49403;51.046;13.780;2024-03-06T00:32:34;7.70;81.00
63277;DHT22;49403;51.046;13.780;2024-03-06T00:33:05;7.70;81.10
63277;DHT22;49403;51.046;13.780;2024-03-06T00:33:35;7.80;81.00
63277;DHT22;49403;51.046;13.780;2024-03-06T00:34:06;7.80;80.90
63277;DHT22;49403;51.046;13.780;2024-03-06T00:34:38;7.80;80.90
63277;DHT22;49403;51.046;13.780;2024-03-06T00:35:08;7.80;80.80
63277;DHT22;49403;51.046;13.780;2024-03-06T00:35:39;7.80;80.80
63277;DHT22;49403;51.046;13.780;2024-03-06T00:36:10;7.80;80.70
63277;DHT22;49403;51.046;13.780;2024-03-06T00:36:43;7.80;80.60
63277;DHT22;49403;51.046;13.780;2024-03-06T00:37:16;7.90;80.50
63277;DHT22;49403;51.046;13.780;2024-03-06T00:37:47;7.90;80.70
63277;DHT22;49403;51.046;13.780;2024-03-06T00:38:18;9.10;81.90
63277;DHT22;49403;51.046;13.780;2024-03-06T00:38:49;7.90;80.70
63277;DHT22;49403;51.046;13.780;2024-03-06T00:39:20;7.90;80.60
63277;DHT22;49403;51.046;13.780;2024-03-06T00:39:51;7.90;80.60
63277;DHT22;49403;51.046;13.780;2024-03-06T00:40:22;7.90;80.50
63277;DHT22;49403;51.046;13.780;2024-03-06T00:40:54;7.90;80.50
63277;DHT22;49403;51.046;13.780;2024-03-06T00:41:24;7.90;80.40
63277;DHT22;49403;51.046;13.780;2024-03-06T00:41:55;8.00;80.50
63277;DHT22;49403;51.046;13.780;2024-03-06T00:42:26;7.90;80.40
63277;DHT22;49403;51.046;13.780;2024-03-06T00:42:57;8.00;80.50
63277;DHT22;49403;51.046;13.780;2024-03-06T00:43:28;8.10;80.30
63277;DHT22;49403;51.046;13.780;2024-03-06T00:43:59;7.90;80.40
63277;DHT22;49403;51.046;13.780;2024-03-06T00:44:30;8.00;80.40
63277;DHT22;49403;51.046;13.780;2024-03-06T00:45:01;8.10;80.60
63277;DHT22;49403;51.046;13.780;2024-03-06T00:45:32;8.10;80.60
63277;DHT22;49403;51.046;13.780;2024-03-06T00:46:03;8.10;80.50
63277;DHT22;49403;51.046;13.780;2024-03-06T00:46:34;8.10;80.40
63277;DHT22;49403;51.046;13.780;2024-03-06T00:47:05;9.30;81.40
63277;DHT22;49403;51.046;13.780;2024-03-06T00:47:36;8.10;80.20
63277;DHT22;49403;51.046;13.780;2024-03-06T00:48:07;8.10;80.00
63277;DHT22;49403;51.046;13.780;2024-03-06T00:48:38;8.20;80.30
63277;DHT22;49403;51.046;13.780;2024-03-06T00:49:09;8.20;80.20
63277;DHT22;49403;51.046;13.780;2024-03-06T00:49:40;8.20;80.10
63277;DHT22;49403;51.046;13.780;2024-03-06T00:50:12;8.20;80.00
63277;DHT22;49403;51.046;13.780;2024-03-06T00:50:43;8.20;79.90
63277;DHT22;49403;51.046;13.780;2024-03-06T00:51:14;8.00;79.60
63277;DHT22;49403;51.046;13.780;2024-03-06T00:51:45;8.30;79.80
63277;DHT22;49403;51.046;13.780;2024-03-06T00:52:15;8.20;79.70
63277;DHT22;49403;51.046;13.780;2024-03-06T00:52:46;8.20;79.70
63277;DHT22;49403;51.046;13.780;2024-03-06T00:53:17;8.20;79.70
63277;DHT22;49403;51.046;13.780;2024-03-06T00:53:48;8.20;79.70
63277;DHT22;49403;51.046;13.780;2024-03-06T00:54:19;8.20;79.70
63277;DHT22;49403;51.046;13.780;2024-03-06T00:54:50;8.20;79.70
63277;DHT22;49403;51.046;13.780;2024-03-06T00:55:20;8.20;79.60
63277;DHT22;49403;51.046;13.780;2024-03-06T00:55:52;8.20;79.50
63277;DHT22;49403;51.046;13.780;2024-03-06T00:56:23;8.20;79.40
63277;DHT22;49403;51.046;13.780;2024-03-06T00:56:54;8.20;79.40
63277;DHT22;49403;51.046;13.780;2024-03-06T00:57:25;8.20;79.40
63277;DHT22;49403;51.046;13.780;2024-03-06T00:57:55;8.20;79.50
63277;DHT22;49403;51.046;13.780;2024-03-06T00:58:27;8.20;79.50
63277;DHT22;49403;51.046;13.780;2024-03-06T00:58:58;8.10;79.50
63277;DHT22;49403;51.046;13.780;2024-03-06T00:59:28;8.10;79.50
63277;DHT22;49403;51.046;13.780;2024-03-06T00:59:59;8.50;80.00
63277;DHT22;49403;51.046;13.780;2024-03-06T01:00:30;8.20;79.60
63277;DHT22;49403;51.046;13.780;2024-03-06T01:01:01;7.20;78.80
63277;DHT22;49403;51.046;13.780;2024-03-06T01:01:32;8.20;79.50
63277;DHT22;49403;51.046;13.780;2024-03-06T01:02:03;7.90;79.30
63277;DHT22;49403;51.046;13.780;2024-03-06T01:02:34;8.30;79.70
63277;DHT22;49403;51.046;13.780;2024-03-06T01:03:05;8.10;79.60
63277;DHT22;49403;51.046;13.780;2024-03-06T01:03:38;8.10;79.70
63277;DHT22;49403;51.046;13.780;2024-03-06T01:04:09;8.10;79.50
63277;DHT22;49403;51.046;13.780;2024-03-06T01:04:40;8.10;79.70
63277;DHT22;49403;51.046;13.780;2024-03-06T01:05:11;8.00;79.80
63277;DHT22;49403;51.046;13.780;2024-03-06T01:05:42;7.90;79.80
63277;DHT22;49403;51.046;13.780;2024-03-06T01:06:13;7.30;79.30
63277;DHT22;49403;51.046;13.780;2024-03-06T01:06:44;8.00;80.10
63277;DHT22;49403;51.046;13.780;2024-03-06T01:07:16;8.00;80.20
63277;DHT22;49403;51.046;13.780;2024-03-06T01:07:47;7.90;80.00
63277;DHT22;49403;51.046;13.780;2024-03-06T01:08:18;7.90;80.00
63277;DHT22;49403;51.046;13.780;2024-03-06T01:08:49;7.70;79.70
63277;DHT22;49403;51.046;13.780;2024-03-06T01:09:20;8.40;80.50
63277;DHT22;49403;51.046;13.780;2024-03-06T01:09:51;7.90;80.10
63277;DHT22;49403;51.046;13.780;2024-03-06T01:10:23;6.70;78.90
63277;DHT22;49403;51.046;13.780;2024-03-06T01:10:54;7.80;80.00
63277;DHT22;49403;51.046;13.780;2024-03-06T01:11:25;7.80;80.10
63277;DHT22;49403;51.046;13.780;2024-03-06T01:11:56;7.80;80.20
63277;DHT22;49403;51.046;13.780;2024-03-06T01:12:27;7.80;80.30
63277;DHT22;49403;51.046;13.780;2024-03-06T01:12:59;7.80;80.30
63277;DHT22;49403;51.046;13.780;2024-03-06T01:13:30;8.00;80.50
63277;DHT22;49403;51.046;13.780;2024-03-06T01:14:01;7.70;80.10
63277;DHT22;49403;51.046;13.780;2024-03-06T01:14:32;7.70;80.40
63277;DHT22;49403;51.046;13.780;2024-03-06T01:15:04;7.70;80.40
63277;DHT22;49403;51.046;13.780;2024-03-06T01:15:35;7.70;80.20
63277;DHT22;49403;51.046;13.780;2024-03-06T01:16:06;7.70;80.50
63277;DHT22;49403;51.046;13.780;2024-03-06T01:16:37;7.70;80.30
63277;DHT22;49403;51.046;13.780;2024-03-06T01:17:08;7.60;80.50
63277;DHT22;49403;51.046;13.780;2024-03-06T01:17:38;7.60;80.60
63277;DHT22;49403;51.046;13.780;2024-03-06T01:18:09;7.60;80.60
63277;DHT22;49403;51.046;13.780;2024-03-06T01:18:40;7.60;80.70
63277;DHT22;49403;51.046;13.780;2024-03-06T01:19:11;7.60;80.80
63277;DHT22;49403;51.046;13.780;2024-03-06T01:19:42;7.60;80.80
63277;DHT22;49403;51.046;13.780;2024-03-06T01:20:16;7.50;80.80
63277;DHT22;49403;51.046;13.780;2024-03-06T01:20:46;7.50;80.80
63277;DHT22;49403;51.046;13.780;2024-03-06T01:21:17;7.50;81.00
63277;DHT22;49403;51.046;13.780;2024-03-06T01:21:48;7.50;81.00
63277;DHT22;49403;51.046;13.780;2024-03-06T01:22:19;7.50;81.10
63277;DHT22;49403;51.046;13.780;2024-03-06T01:22:50;7.40;81.10
63277;DHT22;49403;51.046;13.780;2024-03-06T01:23:21;7.40;81.10
63277;DHT22;49403;51.046;13.780;2024-03-06T01:23:51;7.40;81.10
63277;DHT22;49403;51.046;13.780;2024-03-06T01:24:22;7.40;81.20
63277;DHT22;49403;51.046;13.780;2024-03-06T01:24:53;7.40;81.30
63277;DHT22;49403;51.046;13.780;2024-03-06T01:25:24;7.40;81.30
63277;DHT22;49403;51.046;13.780;2024-03-06T01:25:55;7.40;81.40
63277;DHT22;49403;51.046;13.780;2024-03-06T01:26:26;7.40;81.40
63277;DHT22;49403;51.046;13.780;2024-03-06T01:26:56;7.20;81.20
63277;DHT22;49403;51.046;13.780;2024-03-06T01:27:27;7.40;81.50
63277;DHT22;49403;51.046;13.780;2024-03-06T01:27:58;7.30;81.50
63277;DHT22;49403;51.046;13.780;2024-03-06T01:28:29;7.50;81.70
63277;DHT22;49403;51.046;13.780;2024-03-06T01:29:00;7.30;81.60
63277;DHT22;49403;51.046;13.780;2024-03-06T01:29:31;7.30;81.70
63277;DHT22;49403;51.046;13.780;2024-03-06T01:30:02;7.30;81.90
63277;DHT22;49403;51.046;13.780;2024-03-06T01:30:33;7.30;81.90
63277;DHT22;49403;51.046;13.780;2024-03-06T01:31:04;7.30;81.90
63277;DHT22;49403;51.046;13.780;2024-03-06T01:31:35;7.20;81.80
63277;DHT22;49403;51.046;13.780;2024-03-06T01:32:06;7.30;81.90
63277;DHT22;49403;51.046;13.780;2024-03-06T01:32:37;7.30;81.90
63277;DHT22;49403;51.046;13.780;2024-03-06T01:33:07;7.30;82.00
63277;DHT22;49403;51.046;13.780;2024-03-06T01:33:38;7.50;82.20
63277;DHT22;49403;51.046;13.780;2024-03-06T01:34:09;7.30;82.10
63277;DHT22;49403;51.046;13.780;2024-03-06T01:34:40;7.30;82.10
63277;DHT22;49403;51.046;13.780;2024-03-06T01:35:12;7.30;82.10
63277;DHT22;49403;51.046;13.780;2024-03-06T01:35:42;7.30;82.20
63277;DHT22;49403;51.046;13.780;2024-03-06T01:36:13;7.30;82.20
63277;DHT22;49403;51.046;13.780;2024-03-06T01:36:45;7.30;82.20
63277;DHT22;49403;51.046;13.780;2024-03-06T01:37:16;7.30;82.20
63277;DHT22;49403;51.046;13.780;2024-03-06T01:37:46;7.30;82.10
63277;DHT22;49403;51.046;13.780;2024-03-06T01:38:17;7.30;82.30
63277;DHT22;49403;51.046;13.780;2024-03-06T01:38:48;7.20;82.80
63277;DHT22;49403;51.046;13.780;2024-03-06T01:39:19;7.30;82.30
63277;DHT22;49403;51.046;13.780;2024-03-06T01:39:50;7.30;82.20
63277;DHT22;49403;51.046;13.780;2024-03-06T01:40:21;7.60;82.50
63277;DHT22;49403;51.046;13.780;2024-03-06T01:40:52;7.30;82.30
63277;DHT22;49403;51.046;13.780;2024-03-06T01:41:23;7.20;82.30
63277;DHT22;49403;51.046;13.780;2024-03-06T01:41:54;7.20;82.30
63277;DHT22;49403;51.046;13.780;2024-03-06T01:42:24;7.20;82.30
63277;DHT22;49403;51.046;13.780;2024-03-06T01:42:55;7.20;82.40
63277;DHT22;49403;51.046;13.780;2024-03-06T01:43:27;7.40;83.30
63277;DHT22;49403;51.046;13.780;2024-03-06T01:43:58;7.20;82.50
63277;DHT22;49403;51.046;13.780;2024-03-06T01:44:29;7.20;82.50
63277;DHT22;49403;51.046;13.780;2024-03-06T01:45:01;7.20;82.30
63277;DHT22;49403;51.046;13.780;2024-03-06T01:45:32;7.20;82.30
63277;DHT22;49403;51.046;13.780;2024-03-06T01:46:03;6.90;82.40
63277;DHT22;49403;51.046;13.780;2024-03-06T01:46:34;7.20;82.50
63277;DHT22;49403;51.046;13.780;2024-03-06T01:47:05;7.20;82.60
63277;DHT22;49403;51.046;13.780;2024-03-06T01:47:37;7.20;82.60
63277;DHT22;49403;51.046;13.780;2024-03-06T01:48:08;7.20;82.60
63277;DHT22;49403;51.046;13.780;2024-03-06T01:48:39;7.20;82.70
63277;DHT22;49403;51.046;13.780;2024-03-06T01:49:12;7.20;82.60
63277;DHT22;49403;51.046;13.780;2024-03-06T01:49:46;7.20;82.50
63277;DHT22;49403;51.046;13.780;2024-03-06T01:50:17;7.20;82.70
63277;DHT22;49403;51.046;13.780;2024-03-06T01:50:48;7.10;82.60
63277;DHT22;49403;51.046;13.780;2024-03-06T01:51:19;7.10;82.40
63277;DHT22;49403;51.046;13.780;2024-03-06T01:51:53;7.20;82.80
63277;DHT22;49403;51.046;13.780;2024-03-06T01:52:26;7.10;82.60
63277;DHT22;49403;51.046;13.780;2024-03-06T01:52:58;5.50;81.40
63277;DHT22;49403;51.046;13.780;2024-03-06T01:53:29;7.10;82.80
63277;DHT22;49403;51.046;13.780;2024-03-06T01:54:03;7.10;82.90
63277;DHT22;49403;51.046;13.780;2024-03-06T01:54:34;7.00;82.90
63277;DHT22;49403;51.046;13.780;2024-03-06T01:55:07;7.00;83.20
63277;DHT22;49403;51.046;13.780;2024-03-06T01:55:38;7.00;83.00
63277;DHT22;49403;51.046;13.780;2024-03-06T01:56:09;7.10;83.10
63277;DHT22;49403;51.046;13.780;2024-03-06T01:56:45;7.00;83.40
63277;DHT22;49403;51.046;13.780;2024-03-06T01:57:17;7.00;83.20
63277;DHT22;49403;51.046;13.780;2024-03-06T01:57:49;7.00;83.20
63277;DHT22;49403;51.046;13.780;2024-03-06T01:58:20;7.00;83.30
63277;DHT22;49403;51.046;13.780;2024-03-06T01:58:51;7.50;83.70
63277;DHT22;49403;51.046;13.780;2024-03-06T01:59:25;7.00;83.40
63277;DHT22;49403;51.046;13.780;2024-03-06T01:59:57;7.00;83.30
63277;DHT22;49403;51.046;13.780;2024-03-06T02:00:28;6.90;83.40
63277;DHT22;49403;51.046;13.780;2024-03-06T02:01:00;7.00;83.70
63277;DHT22;49403;51.046;13.780;2024-03-06T02:01:32;7.00;83.40
63277;DHT22;49403;51.046;13.780;2024-03-06T02:02:04;7.00;83.50
63277;DHT22;49403;51.046;13.780;2024-03-06T02:02:35;7.00;83.50
63277;DHT22;49403;51.046;13.780;2024-03-06T02:03:06;7.00;83.90
63277;DHT22;49403;51.046;13.780;2024-03-06T02:03:37;7.00;83.80
63277;DHT22;49403;51.046;13.780;2024-03-06T02:04:09;7.00;84.10
63277;DHT22;49403;51.046;13.780;2024-03-06T02:04:42;7.10;84.00
63277;DHT22;49403;51.046;13.780;2024-03-06T02:05:14;7.10;84.10
63277;DHT22;49403;51.046;13.780;2024-03-06T02:05:45;7.00;84.00
63277;DHT22;49403;51.046;13.780;2024-03-06T02:06:17;7.00;83.70
63277;DHT22;49403;51.046;13.780;2024-03-06T02:06:50;7.00;83.70
63277;DHT22;49403;51.046;13.780;2024-03-06T02:07:21;7.00;83.90
63277;DHT22;49403;51.046;13.780;2024-03-06T02:07:53;7.00;83.90
63277;DHT22;49403;51.046;13.780;2024-03-06T02:08:24;7.00;83.90
63277;DHT22;49403;51.046;13.780;2024-03-06T02:08:55;6.60;83.50
63277;DHT22;49403;51.046;13.780;2024-03-06T02:09:27;6.90;84.50
63277;DHT22;49403;51.046;13.780;2024-03-06T02:09:58;6.90;83.60
63277;DHT22;49403;51.046;13.780;2024-03-06T02:10:29;6.60;83.70
63277;DHT22;49403;51.046;13.780;2024-03-06T02:10:59;6.90;84.00
63277;DHT22;49403;51.046;13.780;2024-03-06T02:11:33;6.90;84.10
63277;DHT22;49403;51.046;13.780;2024-03-06T02:12:05;7.50;84.40
63277;DHT22;49403;51.046;13.780;2024-03-06T02:12:36;6.90;84.00
63277;DHT22;49403;51.046;13.780;2024-03-06T02:13:08;6.70;83.80
63277;DHT22;49403;51.046;13.780;2024-03-06T02:13:40;6.90;84.30
63277;DHT22;49403;51.046;13.780;2024-03-06T02:14:11;6.90;84.30
63277;DHT22;49403;51.046;13.780;2024-03-06T02:14:43;6.90;84.10
63277;DHT22;49403;51.046;13.780;2024-03-06T02:15:13;6.90;84.10
63277;DHT22;49403;51.046;13.780;2024-03-06T02:15:45;6.90;84.50
63277;DHT22;49403;51.046;13.780;2024-03-06T02:16:16;6.80;84.40
63277;DHT22;49403;51.046;13.780;2024-03-06T02:16:47;6.80;84.40
63277;DHT22;49403;51.046;13.780;2024-03-06T02:17:18;6.80;84.50
63277;DHT22;49403;51.046;13.780;2024-03-06T02:17:48;5.70;83.40
63277;DHT22;49403;51.046;13.780;2024-03-06T02:18:20;6.80;84.40
63277;DHT22;49403;51.046;13.780;2024-03-06T02:18:57;6.80;84.50
63277;DHT22;49403;51.046;13.780;2024-03-06T02:19:38;6.80;84.20
63277;DHT22;49403;51.046;13.780;2024-03-06T02:20:11;7.20;84.60
63277;DHT22;49403;51.046;13.780;2024-03-06T02:20:42;6.80;84.30
63277;DHT22;49403;51.046;13.780;2024-03-06T02:21:13;6.80;84.50
63277;DHT22;49403;51.046;13.780;2024-03-06T02:21:45;6.70;84.50
63277;DHT22;49403;51.046;13.780;2024-03-06T02:22:16;6.90;84.70
63277;DHT22;49403;51.046;13.780;2024-03-06T02:22:47;6.80;84.60
63277;DHT22;49403;51.046;13.780;2024-03-06T02:23:18;6.80;84.60
63277;DHT22;49403;51.046;13.780;2024-03-06T02:23:51;7.30;85.10
63277;DHT22;49403;51.046;13.780;2024-03-06T02:24:22;6.80;84.60
63277;DHT22;49403;51.046;13.780;2024-03-06T02:24:53;6.80;84.60
63277;DHT22;49403;51.046;13.780;2024-03-06T02:25:24;6.80;84.60
63277;DHT22;49403;51.046;13.780;2024-03-06T02:25:55;6.80;84.70
63277;DHT22;49403;51.046;13.780;2024-03-06T02:26:26;6.80;84.80
63277;DHT22;49403;51.046;13.780;2024-03-06T02:26:56;6.70;84.60
63277;DHT22;49403;51.046;13.780;2024-03-06T02:27:27;6.70;84.70
63277;DHT22;49403;51.046;13.780;2024-03-06T02:27:58;6.70;85.50
63277;DHT22;49403;51.046;13.780;2024-03-06T02:28:32;6.70;84.70
63277;DHT22;49403;51.046;13.780;2024-03-06T02:29:05;6.70;85.00
63277;DHT22;49403;51.046;13.780;2024-03-06T02:29:36;6.70;84.70
63277;DHT22;49403;51.046;13.780;2024-03-06T02:30:09;6.40;84.60
63277;DHT22;49403;51.046;13.780;2024-03-06T02:30:40;6.70;84.70
63277;DHT22;49403;51.046;13.780;2024-03-06T02:31:11;6.70;85.00
63277;DHT22;49403;51.046;13.780;2024-03-06T02:31:42;6.60;85.00
63277;DHT22;49403;51.046;13.780;2024-03-06T02:32:13;7.50;85.80
63277;DHT22;49403;51.046;13.780;2024-03-06T02:32:48;6.60;84.70
63277;DHT22;49403;51.046;13.780;2024-03-06T02:33:19;6.60;85.20
63277;DHT22;49403;51.046;13.780;2024-03-06T02:33:50;6.60;85.10
63277;DHT22;49403;51.046;13.780;2024-03-06T02:34:21;6.60;85.10
63277;DHT22;49403;51.046;13.780;2024-03-06T02:34:52;6.50;85.00
63277;DHT22;49403;51.046;13.780;2024-03-06T02:35:22;6.60;85.20
63277;DHT22;49403;51.046;13.780;2024-03-06T02:35:53;6.60;85.20
63277;DHT22;49403;51.046;13.780;2024-03-06T02:36:24;6.60;85.20
63277;DHT22;49403;51.046;13.780;2024-03-06T02:36:56;6.80;85.40
63277;DHT22;49403;51.046;13.780;2024-03-06T02:37:27;6.60;85.30
63277;DHT22;49403;51.046;13.780;2024-03-06T02:38:01;6.60;85.30
63277;DHT22;49403;51.046;13.780;2024-03-06T02:38:32;6.80;85.20
63277;DHT22;49403;51.046;13.780;2024-03-06T02:39:03;7.30;85.90
63277;DHT22;49403;51.046;13.780;2024-03-06T02:39:39;6.60;85.40
63277;DHT22;49403;51.046;13.780;2024-03-06T02:40:10;6.60;85.20
63277;DHT22;49403;51.046;13.780;2024-03-06T02:40:43;5.70;84.50
63277;DHT22;49403;51.046;13.780;2024-03-06T02:41:15;6.60;85.20
63277;DHT22;49403;51.046;13.780;2024-03-06T02:41:46;6.60;85.50
63277;DHT22;49403;51.046;13.780;2024-03-06T02:42:17;6.60;85.20
63277;DHT22;49403;51.046;13.780;2024-03-06T02:42:48;6.70;85.50
63277;DHT22;49403;51.046;13.780;2024-03-06T02:43:19;6.60;85.40
63277;DHT22;49403;51.046;13.780;2024-03-06T02:43:50;6.60;85.30
63277;DHT22;49403;51.046;13.780;2024-03-06T02:44:20;6.70;85.40
63277;DHT22;49403;51.046;13.780;2024-03-06T02:44:51;6.60;85.30
63277;DHT22;49403;51.046;13.780;2024-03-06T02:45:22;6.60;85.40
63277;DHT22;49403;51.046;13.780;2024-03-06T02:45:53;6.60;85.20
63277;DHT22;49403;51.046;13.780;2024-03-06T02:46:24;6.60;85.40
63277;DHT22;49403;51.046;13.780;2024-03-06T02:46:55;7.50;86.20
63277;DHT22;49403;51.046;13.780;2024-03-06T02:47:26;6.60;85.40
63277;DHT22;49403;51.046;13.780;2024-03-06T02:47:57;6.60;85.40
63277;DHT22;49403;51.046;13.780;2024-03-06T02:48:28;7.20;85.90
63277;DHT22;49403;51.046;13.780;2024-03-06T02:48:59;5.50;84.30
63277;DHT22;49403;51.046;13.780;2024-03-06T02:49:30;6.60;85.30
63277;DHT22;49403;51.046;13.780;2024-03-06T02:50:01;6.40;85.10
63277;DHT22;49403;51.046;13.780;2024-03-06T02:50:32;6.50;85.30
63277;DHT22;49403;51.046;13.780;2024-03-06T02:51:03;5.90;84.70
63277;DHT22;49403;51.046;13.780;2024-03-06T02:51:34;6.60;85.80
63277;DHT22;49403;51.046;13.780;2024-03-06T02:52:04;6.60;85.40
63277;DHT22;49403;51.046;13.780;2024-03-06T02:52:35;6.60;85.40
63277;DHT22;49403;51.046;13.780;2024-03-06T02:53:06;6.60;85.30
63277;DHT22;49403;51.046;13.780;2024-03-06T02:53:37;5.90;85.00
63277;DHT22;49403;51.046;13.780;2024-03-06T02:54:08;6.60;85.80
63277;DHT22;49403;51.046;13.780;2024-03-06T02:54:41;6.60;85.80
63277;DHT22;49403;51.046;13.780;2024-03-06T02:55:12;6.60;85.50
63277;DHT22;49403;51.046;13.780;2024-03-06T02:55:43;6.60;85.60
63277;DHT22;49403;51.046;13.780;2024-03-06T02:56:20;7.10;86.10
63277;DHT22;49403;51.046;13.780;2024-03-06T02:56:51;6.60;85.60
63277;DHT22;49403;51.046;13.780;2024-03-06T02:57:23;6.60;85.80
63277;DHT22;49403;51.046;13.780;2024-03-06T02:57:53;6.50;85.70
63277;DHT22;49403;51.046;13.780;2024-03-06T02:58:24;6.60;85.70
63277;DHT22;49403;51.046;13.780;2024-03-06T02:58:55;6.50;85.80
63277;DHT22;49403;51.046;13.780;2024-03-06T02:59:26;6.70;86.00
63277;DHT22;49403;51.046;13.780;2024-03-06T02:59:57;6.50;85.90
63277;DHT22;49403;51.046;13.780;2024-03-06T03:00:28;6.70;85.80
63277;DHT22;49403;51.046;13.780;2024-03-06T03:00:59;6.50;86.00
63277;DHT22;49403;51.046;13.780;2024-03-06T03:01:30;6.50;86.10
63277;DHT22;49403;51.046;13.780;2024-03-06T03:02:01;6.50;86.10
63277;DHT22;49403;51.046;13.780;2024-03-06T03:02:33;6.50;86.10
63277;DHT22;49403;51.046;13.780;2024-03-06T03:03:04;6.40;86.10
63277;DHT22;49403;51.046;13.780;2024-03-06T03:03:35;6.50;86.30
63277;DHT22;49403;51.046;13.780;2024-03-06T03:04:06;6.50;86.00
63277;DHT22;49403;51.046;13.780;2024-03-06T03:04:38;6.50;86.30
63277;DHT22;49403;51.046;13.780;2024-03-06T03:05:09;7.40;87.20
63277;DHT22;49403;51.046;13.780;2024-03-06T03:05:40;6.50;86.50
63277;DHT22;49403;51.046;13.780;2024-03-06T03:06:10;6.40;86.40
63277;DHT22;49403;51.046;13.780;2024-03-06T03:06:41;7.60;87.60
63277;DHT22;49403;51.046;13.780;2024-03-06T03:07:12;6.90;87.00
63277;DHT22;49403;51.046;13.780;2024-03-06T03:07:43;6.50;86.60
63277;DHT22;49403;51.046;13.780;2024-03-06T03:08:14;6.50;86.70
63277;DHT22;49403;51.046;13.780;2024-03-06T03:08:46;6.50;86.70
63277;DHT22;49403;51.046;13.780;2024-03-06T03:09:17;6.30;86.50
63277;DHT22;49403;51.046;13.780;2024-03-06T03:09:48;6.50;86.70
63277;DHT22;49403;51.046;13.780;2024-03-06T03:10:19;6.50;86.80
63277;DHT22;49403;51.046;13.780;2024-03-06T03:10:50;5.40;85.80
63277;DHT22;49403;51.046;13.780;2024-03-06T03:11:21;6.40;86.80
63277;DHT22;49403;51.046;13.780;2024-03-06T03:11:52;6.50;86.90
63277;DHT22;49403;51.046;13.780;2024-03-06T03:12:23;6.50;86.90
63277;DHT22;49403;51.046;13.780;2024-03-06T03:12:54;6.50;87.00
63277;DHT22;49403;51.046;13.780;2024-03-06T03:13:25;6.50;86.90
63277;DHT22;49403;51.046;13.780;2024-03-06T03:13:56;6.50;86.80
63277;DHT22;49403;51.046;13.780;2024-03-06T03:14:27;6.60;86.80
63277;DHT22;49403;51.046;13.780;2024-03-06T03:14:58;6.50;86.70
63277;DHT22;49403;51.046;13.780;2024-03-06T03:15:29;6.40;86.60
63277;DHT22;49403;51.046;13.780;2024-03-06T03:15:59;6.50;86.70
63277;DHT22;49403;51.046;13.780;2024-03-06T03:16:30;6.10;86.40
63277;DHT22;49403;51.046;13.780;2024-03-06T03:17:03;6.40;86.70
63277;DHT22;49403;51.046;13.780;2024-03-06T03:17:36;6.50;86.90